createdAt,value
2023-03-06T00:02:11.730Z,101026.00
2023-03-06T00:04:41.146Z,101018.47
2023-03-06T00:07:14.141Z,101015.47
2023-03-06T00:09:43.984Z,101011.34
2023-03-06T00:12:13.345Z,101005.44
2023-03-06T00:14:39.724Z,101011.56
2023-03-06T00:17:06.171Z,101006.28
2023-03-06T00:19:32.583Z,101001.22
2023-03-06T00:22:12.093Z,100991.69
2023-03-06T00:27:45.785Z,100989.25
2023-03-06T00:30:28.739Z,100987.91
2023-03-06T00:32:55.066Z,100987.50
2023-03-06T00:35:21.624Z,100985.13
2023-03-06T00:37:51.617Z,100980.16
2023-03-06T00:40:21.255Z,100974.16
2023-03-06T00:42:49.809Z,100967.31
2023-03-06T00:45:16.628Z,100960.38
2023-03-06T00:47:43.407Z,100952.50
2023-03-06T00:50:10.653Z,100955.22
2023-03-06T00:52:37.648Z,100948.00
2023-03-06T00:55:09.366Z,100945.00
2023-03-06T00:57:38.296Z,100947.69
2023-03-06T01:00:09.173Z,100942.41
2023-03-06T01:02:35.709Z,100937.13
2023-03-06T01:05:07.687Z,100941.47
2023-03-06T01:07:36.468Z,100933.81
2023-03-06T01:10:08.213Z,100932.97
2023-03-06T01:12:37.427Z,100928.63
2023-03-06T01:15:05.075Z,100925.31
2023-03-06T01:17:34.569Z,100925.41
2023-03-06T01:20:00.944Z,100915.88
2023-03-06T01:22:27.322Z,100913.31
2023-03-06T01:25:00.174Z,100916.84
2023-03-06T01:27:30.584Z,100916.09
2023-03-06T01:30:02.045Z,100917.97
2023-03-06T01:32:28.540Z,100917.16
2023-03-06T01:34:55.165Z,100917.97
2023-03-06T01:37:23.618Z,100916.56
2023-03-06T01:39:53.039Z,100921.84
2023-03-06T01:42:19.397Z,100922.75
2023-03-06T01:45:17.939Z,100919.56
2023-03-06T01:47:47.629Z,100912.94
2023-03-06T01:50:14.187Z,100913.38
2023-03-06T01:52:55.038Z,100917.44
2023-03-06T01:55:40.158Z,100903.16
2023-03-06T01:58:12.863Z,100904.31
2023-03-06T02:00:43.068Z,100898.63
2023-03-06T02:03:29.856Z,100897.06
2023-03-06T02:06:02.931Z,100892.09
2023-03-06T02:08:30.354Z,100883.84
2023-03-06T02:11:15.669Z,100887.13
2023-03-06T02:13:46.938Z,100883.84
2023-03-06T02:16:14.158Z,100879.69
2023-03-06T02:18:45.854Z,100875.34
2023-03-06T02:21:20.389Z,100873.78
2023-03-06T02:24:31.478Z,100885.19
2023-03-06T02:27:03.616Z,100879.91
2023-03-06T02:29:34.606Z,100878.25
2023-03-06T02:32:02.437Z,100871.31
2023-03-06T02:34:28.803Z,100877.22
2023-03-06T02:37:08.691Z,100875.47
2023-03-06T02:39:45.399Z,100875.34
2023-03-06T02:42:18.473Z,100865.00
2023-03-06T02:44:47.847Z,100863.94
2023-03-06T02:47:14.284Z,100862.19
2023-03-06T02:49:44.920Z,100859.28
2023-03-06T02:52:14.537Z,100850.47
2023-03-06T02:54:48.607Z,100851.00
2023-03-06T02:57:18.213Z,100842.19
2023-03-06T02:59:46.704Z,100835.13
2023-03-06T03:02:13.753Z,100834.13
2023-03-06T03:04:43.019Z,100825.28
2023-03-06T03:07:09.525Z,100814.59
2023-03-06T03:17:46.963Z,100808.06
2023-03-06T03:20:18.976Z,100799.25
2023-03-06T03:22:55.441Z,100800.81
2023-03-06T03:25:24.721Z,100799.34
2023-03-06T03:27:54.898Z,100799.25
2023-03-06T03:30:21.395Z,100789.63
2023-03-06T03:32:47.760Z,100795.41
2023-03-06T03:38:00.130Z,100791.53
2023-03-06T03:40:29.562Z,100783.16
2023-03-06T03:43:02.684Z,100782.94
2023-03-06T03:45:31.843Z,100788.00
2023-03-06T03:47:58.198Z,100786.25
2023-03-06T03:50:27.395Z,100775.28
2023-03-06T03:52:56.566Z,100773.41
2023-03-06T03:55:27.606Z,100773.19
2023-03-06T03:57:56.300Z,100771.31
2023-03-06T04:00:22.973Z,100766.13
2023-03-06T04:02:54.652Z,100763.31
2023-03-06T04:05:23.930Z,100765.91
2023-03-06T04:07:58.180Z,100762.25
2023-03-06T04:10:24.538Z,100763.72
2023-03-06T04:12:51.094Z,100758.41
2023-03-06T04:15:20.545Z,100759.81
2023-03-06T04:17:49.830Z,100753.84
2023-03-06T04:20:16.458Z,100752.06
2023-03-06T04:22:45.925Z,100755.47
2023-03-06T04:25:15.402Z,100744.78
2023-03-06T04:27:41.844Z,100744.66
2023-03-06T04:30:11.412Z,100740.53
2023-03-06T04:32:38.034Z,100743.25
2023-03-06T04:35:04.801Z,100739.59
2023-03-06T04:37:33.740Z,100739.38
2023-03-06T04:40:04.162Z,100737.25
2023-03-06T04:42:38.521Z,100720.88
2023-03-06T04:45:05.336Z,100723.59
2023-03-06T04:47:31.745Z,100725.94
2023-03-06T04:50:02.557Z,100725.25
2023-03-06T04:52:28.888Z,100720.88
2023-03-06T04:54:55.310Z,100713.94
2023-03-06T04:57:24.744Z,100714.91
2023-03-06T04:59:54.377Z,100717.56
2023-03-06T05:02:20.878Z,100719.25
2023-03-06T05:04:50.634Z,100721.59
2023-03-06T05:07:20.069Z,100720.19
2023-03-06T05:09:54.206Z,100715.59
2023-03-06T05:12:20.668Z,100729.41
2023-03-06T05:14:48.102Z,100712.78
2023-03-06T05:17:18.696Z,100715.38
2023-03-06T05:19:45.102Z,100711.03
2023-03-06T05:22:11.634Z,100707.25
2023-03-06T05:27:33.484Z,100712.78
2023-03-06T05:30:00.445Z,100712.44
2023-03-06T05:32:35.339Z,100715.75
2023-03-06T05:35:16.163Z,100700.31
2023-03-06T05:37:45.063Z,100697.84
2023-03-06T05:40:12.381Z,100705.72
2023-03-06T05:42:38.780Z,100696.41
2023-03-06T05:45:05.859Z,100702.31
2023-03-06T05:47:34.307Z,100696.31
2023-03-06T05:50:04.688Z,100700.06
2023-03-06T05:52:33.148Z,100691.69
2023-03-06T05:54:59.754Z,100691.25
2023-03-06T05:57:29.177Z,100690.53
2023-03-06T05:59:58.586Z,100694.63
2023-03-06T06:02:25.028Z,100690.28
2023-03-06T06:04:51.416Z,100698.06
2023-03-06T06:07:17.876Z,100694.75
2023-03-06T06:09:49.631Z,100696.63
2023-03-06T06:12:15.963Z,100705.13
2023-03-06T06:14:42.295Z,100710.91
2023-03-06T06:17:12.198Z,100708.91
2023-03-06T06:19:41.330Z,100711.03
2023-03-06T06:22:10.783Z,100711.03
2023-03-06T06:24:38.073Z,100719.41
2023-03-06T06:27:04.830Z,100716.47
2023-03-06T06:29:31.879Z,100714.56
2023-03-06T06:32:02.526Z,100719.97
2023-03-06T06:34:28.978Z,100711.84
2023-03-06T06:36:55.501Z,100714.91
2023-03-06T06:39:32.393Z,100713.38
2023-03-06T06:42:20.046Z,100717.75
2023-03-06T06:44:45.833Z,100717.38
2023-03-06T06:47:24.502Z,100716.22
2023-03-06T06:50:00.893Z,100713.81
2023-03-06T06:52:31.483Z,100714.28
2023-03-06T06:55:00.595Z,100715.84
2023-03-06T06:57:27.059Z,100714.06
2023-03-06T06:59:56.035Z,100715.34
2023-03-06T07:02:25.568Z,100715.94
2023-03-06T07:05:03.804Z,100716.50
2023-03-06T07:07:33.832Z,100727.34
2023-03-06T07:15:33.311Z,100724.03
2023-03-06T07:18:08.857Z,100727.91
2023-03-06T07:20:36.004Z,100736.72
2023-03-06T07:23:02.803Z,100727.03
2023-03-06T07:25:29.544Z,100732.31
2023-03-06T07:28:03.248Z,100732.44
2023-03-06T07:30:34.985Z,100737.75
2023-03-06T07:33:04.310Z,100731.63
2023-03-06T07:35:30.755Z,100731.94
2023-03-06T07:37:57.859Z,100736.59
2023-03-06T07:40:27.665Z,100732.38
2023-03-06T07:43:06.059Z,100735.91
2023-03-06T07:45:42.613Z,100741.53
2023-03-06T07:48:11.781Z,100734.09
2023-03-06T07:50:38.962Z,100731.22
2023-03-06T07:53:08.563Z,100731.81
2023-03-06T07:55:36.132Z,100735.59
2023-03-06T07:58:02.468Z,100737.63
2023-03-06T08:00:37.401Z,100737.72
2023-03-06T08:03:04.057Z,100747.59
2023-03-06T08:05:31.535Z,100735.97
2023-03-06T08:07:57.906Z,100737.16
2023-03-06T08:10:24.382Z,100739.09
2023-03-06T08:12:50.777Z,100737.63
2023-03-06T08:15:17.774Z,100740.47
2023-03-06T08:17:44.295Z,100740.66
2023-03-06T08:20:14.441Z,100735.06
2023-03-06T08:22:40.840Z,100747.56
2023-03-06T08:25:16.462Z,100740.16
2023-03-06T08:27:50.064Z,100746.22
2023-03-06T08:30:16.805Z,100746.81
2023-03-06T08:32:43.211Z,100746.72
2023-03-06T08:35:12.861Z,100741.13
2023-03-06T08:37:42.416Z,100737.59
2023-03-06T08:40:16.449Z,100740.72
2023-03-06T08:42:42.865Z,100747.66
2023-03-06T08:45:09.856Z,100745.88
2023-03-06T08:47:49.235Z,100739.66
2023-03-06T08:50:18.161Z,100738.34
2023-03-06T08:52:47.494Z,100735.31
2023-03-06T08:55:15.195Z,100742.50
2023-03-06T08:57:45.973Z,100740.03
2023-03-06T09:00:15.986Z,100738.09
2023-03-06T09:02:42.376Z,100730.22
2023-03-06T09:08:00.336Z,100737.06
2023-03-06T09:10:27.691Z,100734.47
2023-03-06T09:13:03.905Z,100733.38
2023-03-06T09:15:30.395Z,100739.00
2023-03-06T09:18:00.672Z,100735.56
2023-03-06T09:20:27.244Z,100735.97
2023-03-06T09:22:53.633Z,100728.84
2023-03-06T09:25:22.283Z,100737.78
2023-03-06T09:28:08.631Z,100732.00
2023-03-06T09:30:37.151Z,100733.53
2023-03-06T09:33:07.013Z,100731.19
2023-03-06T09:35:56.121Z,100724.19
2023-03-06T09:41:22.983Z,100730.66
2023-03-06T09:44:06.093Z,100723.69
2023-03-06T09:46:47.254Z,100717.66
2023-03-06T09:49:47.766Z,100727.03
2023-03-06T09:52:36.337Z,100720.34
2023-03-06T09:55:22.629Z,100722.94
2023-03-06T09:58:09.835Z,100723.88
2023-03-06T10:00:44.451Z,100727.13
2023-03-06T10:03:27.815Z,100721.81
2023-03-06T10:06:12.204Z,100721.41
2023-03-06T10:09:06.999Z,100732.59
2023-03-06T10:11:49.225Z,100731.75
2023-03-06T10:14:41.674Z,100733.78
2023-03-06T10:17:23.295Z,100731.53
2023-03-06T10:19:50.810Z,100734.13
2023-03-06T10:22:31.248Z,100733.28
2023-03-06T10:25:15.141Z,100725.28
2023-03-06T10:27:51.138Z,100725.06
2023-03-06T10:30:43.366Z,100718.19
2023-03-06T10:33:22.289Z,100721.34
2023-03-06T10:35:56.117Z,100718.56
2023-03-06T10:38:27.353Z,100718.19
2023-03-06T10:41:15.663Z,100719.72
2023-03-06T10:44:06.592Z,100728.25
2023-03-06T10:46:44.537Z,100730.31
2023-03-06T10:49:24.913Z,100715.66
2023-03-06T10:52:03.582Z,100709.19
2023-03-06T10:54:37.134Z,100715.75
2023-03-06T10:57:25.109Z,100712.19
2023-03-06T11:00:08.434Z,100711.38
2023-03-06T11:02:49.672Z,100704.19
2023-03-06T11:05:23.094Z,100704.97
2023-03-06T11:07:55.483Z,100699.75
2023-03-06T11:10:37.657Z,100701.13
2023-03-06T11:13:26.884Z,100695.13
2023-03-06T11:15:57.825Z,100686.06
2023-03-06T11:18:40.444Z,100691.28
2023-03-06T11:21:31.985Z,100687.53
2023-03-06T11:24:13.286Z,100689.34
2023-03-06T11:27:02.817Z,100672.69
2023-03-06T11:29:47.016Z,100678.84
2023-03-06T11:32:58.621Z,100678.59
2023-03-06T11:35:39.387Z,100676.22
2023-03-06T11:38:27.220Z,100674.16
2023-03-06T11:41:00.095Z,100664.00
2023-03-06T11:43:55.406Z,100662.16
2023-03-06T11:46:45.671Z,100655.50
2023-03-06T11:49:39.947Z,100654.63
2023-03-06T11:52:14.538Z,100660.66
2023-03-06T11:54:40.869Z,100658.09
2023-03-06T11:57:17.660Z,100651.91
2023-03-06T12:00:02.616Z,100647.38
2023-03-06T12:02:59.438Z,100646.78
2023-03-06T12:05:42.562Z,100643.38
2023-03-06T12:08:39.437Z,100633.72
2023-03-06T12:14:11.924Z,100642.59
2023-03-06T12:17:05.933Z,100631.63
2023-03-06T12:20:07.385Z,100632.63
2023-03-06T12:23:02.515Z,100626.75
2023-03-06T12:25:51.340Z,100630.53
2023-03-06T12:28:20.731Z,100625.41
2023-03-06T12:31:23.735Z,100630.34
2023-03-06T12:34:13.824Z,100617.75
2023-03-06T12:37:02.787Z,100624.56
2023-03-06T12:39:45.828Z,100613.97
2023-03-06T12:42:48.794Z,100611.28
2023-03-06T12:45:35.215Z,100600.53
2023-03-06T12:48:20.534Z,100607.44
2023-03-06T12:50:51.147Z,100609.19
2023-03-06T12:53:38.208Z,100604.66
2023-03-06T12:56:12.838Z,100603.56
2023-03-06T12:58:51.848Z,100587.97
2023-03-06T13:01:56.338Z,100593.31
2023-03-06T13:05:15.673Z,100591.63
2023-03-06T13:08:01.163Z,100581.88
2023-03-06T13:10:42.238Z,100580.16
2023-03-06T13:13:35.113Z,100578.19
2023-03-06T13:16:23.278Z,100577.41
2023-03-06T13:19:02.727Z,100567.09
2023-03-06T13:22:15.451Z,100561.72
2023-03-06T13:30:56.150Z,100552.22
2023-03-06T13:33:55.078Z,100542.25
2023-03-06T13:36:23.120Z,100540.16
2023-03-06T13:38:52.570Z,100533.94
2023-03-06T13:41:22.102Z,100528.19
2023-03-06T13:43:54.742Z,100522.16
2023-03-06T13:46:40.249Z,100525.72
2023-03-06T13:54:35.023Z,100518.16
2023-03-06T13:57:32.394Z,100517.34
2023-03-06T14:00:45.415Z,100516.16
2023-03-06T14:03:45.671Z,100505.50
2023-03-06T14:06:42.260Z,100506.28
2023-03-06T14:09:43.920Z,100506.63
2023-03-06T14:12:27.204Z,100498.44
2023-03-06T14:15:25.901Z,100489.44
2023-03-06T14:18:18.515Z,100497.38
2023-03-06T14:20:57.323Z,100492.38
2023-03-06T14:24:01.435Z,100479.53
2023-03-06T14:26:40.254Z,100482.00
2023-03-06T14:29:32.250Z,100467.09
2023-03-06T14:32:01.012Z,100477.78
2023-03-06T14:34:50.747Z,100475.84
2023-03-06T14:37:27.726Z,100470.53
2023-03-06T14:39:57.173Z,100468.56
2023-03-06T14:42:36.183Z,100460.59
2023-03-06T14:45:17.271Z,100461.94
2023-03-06T14:48:03.738Z,100458.66
2023-03-06T14:50:52.392Z,100456.88
2023-03-06T14:53:28.192Z,100459.06
2023-03-06T14:56:27.521Z,100465.44
2023-03-06T14:59:11.978Z,100458.06
2023-03-06T15:01:51.194Z,100460.47
2023-03-06T15:05:09.292Z,100455.53
2023-03-06T15:07:35.784Z,100455.25
2023-03-06T15:10:34.932Z,100452.47
2023-03-06T15:13:56.722Z,100439.75
2023-03-06T15:16:49.998Z,100429.53
2023-03-06T15:19:21.838Z,100425.97
2023-03-06T15:21:51.596Z,100426.34
2023-03-06T15:25:12.141Z,100424.41
2023-03-06T15:28:07.152Z,100412.88
2023-03-06T15:30:35.791Z,100415.63
2023-03-06T15:33:33.893Z,100409.66
2023-03-06T15:36:25.674Z,100416.53
2023-03-06T15:38:52.223Z,100420.59
2023-03-06T15:42:12.749Z,100407.34
2023-03-06T15:45:05.604Z,100399.75
2023-03-06T15:47:32.106Z,100414.56
2023-03-06T15:49:58.560Z,100414.88
2023-03-06T15:52:30.554Z,100398.41
2023-03-06T15:55:01.179Z,100393.78
2023-03-06T15:57:31.429Z,100390.13
2023-03-06T16:00:01.395Z,100392.03
2023-03-06T16:02:31.977Z,100383.19
2023-03-06T16:05:02.273Z,100391.84
2023-03-06T16:07:28.716Z,100380.88
2023-03-06T16:10:00.116Z,100389.13
2023-03-06T16:12:30.924Z,100378.22
2023-03-06T16:15:01.019Z,100371.44
2023-03-06T16:17:30.182Z,100373.03
2023-03-06T16:19:56.567Z,100376.63
2023-03-06T16:22:26.564Z,100373.69
2023-03-06T16:24:52.894Z,100382.84
2023-03-06T16:27:19.809Z,100378.22
2023-03-06T16:29:55.130Z,100380.53
2023-03-06T16:32:21.500Z,100387.41
2023-03-06T16:35:01.472Z,100379.19
2023-03-06T16:37:28.906Z,100372.38
2023-03-06T16:39:55.730Z,100372.94
2023-03-06T16:42:23.178Z,100365.94
2023-03-06T16:44:49.896Z,100355.69
2023-03-06T16:47:19.158Z,100365.66
2023-03-06T16:49:48.413Z,100357.34
2023-03-06T16:52:20.520Z,100361.44
2023-03-06T16:54:50.101Z,100353.78
2023-03-06T16:57:19.817Z,100351.19
2023-03-06T16:59:46.642Z,100353.22
2023-03-06T17:02:13.186Z,100340.78
2023-03-06T17:04:39.642Z,100343.09
2023-03-06T17:07:09.006Z,100348.16
2023-03-06T17:09:38.439Z,100342.69
2023-03-06T17:12:04.905Z,100337.13
2023-03-06T17:14:40.786Z,100327.78
2023-03-06T17:17:07.321Z,100330.41
2023-03-06T17:19:38.384Z,100331.34
2023-03-06T17:22:04.863Z,100316.72
2023-03-06T17:24:31.245Z,100314.53
2023-03-06T17:27:03.050Z,100311.94
2023-03-06T17:29:29.462Z,100310.84
2023-03-06T17:31:55.818Z,100312.47
2023-03-06T17:39:48.391Z,100301.13
2023-03-06T17:42:17.575Z,100302.91
2023-03-06T17:44:46.166Z,100295.94
2023-03-06T17:47:12.704Z,100296.63
2023-03-06T17:49:41.867Z,100299.91
2023-03-06T17:52:10.722Z,100288.53
2023-03-06T17:54:37.463Z,100295.41
2023-03-06T17:57:05.643Z,100282.41
2023-03-06T18:02:20.027Z,100286.38
2023-03-06T18:04:49.369Z,100277.75
2023-03-06T18:07:18.116Z,100280.47
2023-03-06T18:09:49.786Z,100272.97
2023-03-06T18:12:16.225Z,100277.50
2023-03-06T18:14:53.729Z,100277.91
2023-03-06T18:17:20.159Z,100281.72
2023-03-06T18:19:46.608Z,100279.00
2023-03-06T18:22:13.322Z,100277.22
2023-03-06T18:24:43.608Z,100262.19
2023-03-06T18:27:10.003Z,100260.25
2023-03-06T18:29:36.359Z,100254.69
2023-03-06T18:32:03.051Z,100263.81
2023-03-06T18:34:29.542Z,100260.41
2023-03-06T18:36:58.927Z,100244.16
2023-03-06T18:39:28.392Z,100247.56
2023-03-06T18:41:58.455Z,100247.72
2023-03-06T18:44:24.866Z,100228.00
2023-03-06T18:46:51.254Z,100235.13
2023-03-06T18:49:17.856Z,100232.38
2023-03-06T18:51:52.388Z,100226.66
2023-03-06T18:54:18.783Z,100226.09
2023-03-06T18:56:50.865Z,100222.41
2023-03-06T18:59:18.946Z,100217.50
2023-03-06T19:01:47.094Z,100215.84
2023-03-06T19:04:18.809Z,100210.81
2023-03-06T19:06:45.322Z,100209.97
2023-03-06T19:09:17.819Z,100203.56
2023-03-06T19:11:46.748Z,100192.50
2023-03-06T19:14:15.664Z,100196.84
2023-03-06T19:16:42.377Z,100188.13
2023-03-06T19:19:09.382Z,100186.47
2023-03-06T19:21:35.797Z,100184.00
2023-03-06T19:24:14.020Z,100179.78
2023-03-06T19:26:56.330Z,100171.44
2023-03-06T19:29:29.883Z,100172.28
2023-03-06T19:31:57.387Z,100175.56
2023-03-06T19:34:31.650Z,100175.94
2023-03-06T19:36:58.074Z,100167.66
2023-03-06T19:39:24.796Z,100153.00
2023-03-06T19:41:55.422Z,100165.47
2023-03-06T19:44:23.133Z,100150.16
2023-03-06T19:46:50.513Z,100149.88
2023-03-06T19:49:25.598Z,100143.19
2023-03-06T19:51:52.002Z,100147.81
2023-03-06T19:54:23.184Z,100131.72
2023-03-06T19:56:49.607Z,100135.13
2023-03-06T19:59:16.100Z,100131.03
2023-03-06T20:01:46.693Z,100119.41
2023-03-06T20:04:13.161Z,100119.13
2023-03-06T20:06:39.632Z,100105.38
2023-03-06T20:09:08.764Z,100103.44
2023-03-06T20:11:38.512Z,100101.53
2023-03-06T20:14:09.871Z,100101.53
2023-03-06T20:16:38.699Z,100090.31
2023-03-06T20:19:05.659Z,100089.25
2023-03-06T20:21:38.221Z,100075.28
2023-03-06T20:24:06.308Z,100074.06
2023-03-06T20:26:40.007Z,100073.94
2023-03-06T20:29:06.462Z,100068.75
2023-03-06T20:31:32.946Z,100059.72
2023-03-06T20:34:04.401Z,100057.81
2023-03-06T20:36:35.876Z,100050.84
2023-03-06T20:39:07.010Z,100033.88
2023-03-06T20:41:33.458Z,100043.97
2023-03-06T20:44:01.768Z,100041.09
2023-03-06T20:46:31.582Z,100037.81
2023-03-06T20:48:58.160Z,100024.44
2023-03-06T20:51:34.003Z,100014.72
2023-03-06T20:54:02.354Z,100017.31
2023-03-06T20:56:34.149Z,100020.59
2023-03-06T20:59:03.417Z,100014.28
2023-03-06T21:01:51.137Z,99999.38
2023-03-06T21:04:19.916Z,99992.28
2023-03-06T21:06:52.135Z,99998.81
2023-03-06T21:09:23.786Z,100003.72
2023-03-06T21:11:50.639Z,99995.91
2023-03-06T21:14:17.074Z,99993.03
2023-03-06T21:16:44.534Z,99989.63
2023-03-06T21:19:14.075Z,99991.25
2023-03-06T21:21:40.596Z,99981.56
2023-03-06T21:24:12.420Z,99969.06
2023-03-06T21:26:38.793Z,99969.75
2023-03-06T21:29:05.555Z,99971.41
2023-03-06T21:31:41.218Z,99969.47
2023-03-06T21:34:08.014Z,99969.31
2023-03-06T21:39:20.966Z,99973.91
2023-03-06T21:41:47.340Z,99965.03
2023-03-06T21:44:13.801Z,99960.66
2023-03-06T21:46:48.622Z,99955.97
2023-03-06T21:49:14.986Z,99955.69
2023-03-06T21:51:41.325Z,99938.03
2023-03-06T21:54:09.606Z,99956.22
2023-03-06T21:56:36.092Z,99957.69
2023-03-06T21:59:02.594Z,99963.28
2023-03-06T22:01:32.719Z,99965.56
2023-03-06T22:04:00.128Z,99949.19
2023-03-06T22:06:29.386Z,99957.63
2023-03-06T22:08:56.955Z,99945.47
2023-03-06T22:11:24.621Z,99953.09
2023-03-06T22:13:55.753Z,99953.78
2023-03-06T22:16:29.500Z,99948.28
2023-03-06T22:19:01.672Z,99938.88
2023-03-06T22:21:31.016Z,99945.00
2023-03-06T22:24:03.139Z,99939.97
2023-03-06T22:26:32.707Z,99944.19
2023-03-06T22:29:06.522Z,99944.06
2023-03-06T22:31:36.112Z,99933.78
2023-03-06T22:34:11.206Z,99937.06
2023-03-06T22:36:37.702Z,99943.91
2023-03-06T22:39:04.335Z,99933.66
2023-03-06T22:41:54.217Z,99930.25
2023-03-06T22:44:24.011Z,99930.69
2023-03-06T22:46:51.838Z,99933.59
2023-03-06T22:49:27.889Z,99926.88
2023-03-06T22:51:59.474Z,99930.31
2023-03-06T22:54:28.780Z,99933.75
2023-03-06T22:56:55.099Z,99920.06
2023-03-06T22:59:22.132Z,99923.63
2023-03-06T23:01:51.607Z,99923.91
2023-03-06T23:04:18.246Z,99919.38
2023-03-06T23:06:46.954Z,99925.13
2023-03-06T23:09:22.077Z,99914.72
2023-03-06T23:11:52.147Z,99920.75
2023-03-06T23:14:19.574Z,99914.88
2023-03-06T23:16:53.890Z,99919.53
2023-03-06T23:19:23.093Z,99919.97
2023-03-06T23:21:51.145Z,99924.34
2023-03-06T23:24:23.550Z,99916.72
2023-03-06T23:26:50.008Z,99911.50
2023-03-06T23:29:18.873Z,99909.59
2023-03-06T23:31:48.151Z,99919.69
2023-03-06T23:34:14.497Z,99917.91
2023-03-06T23:36:49.075Z,99919.53
2023-03-06T23:39:16.699Z,99911.88
2023-03-06T23:41:43.153Z,99916.00
2023-03-06T23:44:09.547Z,99910.50
2023-03-06T23:46:36.116Z,99905.78
2023-03-06T23:49:02.928Z,99908.09
2023-03-06T23:51:33.976Z,99902.75
2023-03-06T23:54:00.447Z,99902.31
2023-03-06T23:56:30.822Z,99898.44
2023-03-06T23:58:57.634Z,99910.16
